NetherlandsFixed distance
Kennedymars
30 Mar1991
Distance
80km
Finishers
4136 men5 women
Winning time
7:54:33h
Median pace
8.19km/h
Pace distribution
41 finishers · 6.75–10.12 km/h · mean 8.27
Every finisher ran the same 80 km course, so these paces are directly comparable.
Histogram of finisher pace. 41 finishers ranged from 6.75 to 10.12 kilometres per hour, with a mean of 8.27 and a median of 8.19. The busiest band is 8.0 to 8.5 kilometres per hour, with 18 finishers.
Results
Ranks 1–41 of 41
| Rank | Runner | Time | Pace | Cat. | Placing |
|---|---|---|---|---|---|
| 1 | RWV | 7:54:33h | 10.12 | — | 1st M |
| 2 | Unitas | 8:05:24h | 9.89 | M40 | 2nd M · 1st M40 |
| 3 | Olympia | 8:08:07h | 9.83 | M23 | 3rd M · 1st M23 |
| 4 | LAT | 8:11:37h | 9.76 | M35 | 4th M · 1st M35 |
| 5 | Olat | 8:27:29h | 9.46 | M23 | 5th M · 2nd M23 |
| 6 | Olat | 8:42:07h | 9.19 | M40 | 6th M · 2nd M40 |
| 7 | Olat | 8:43:14h | 9.17 | — | 7th M |
| 8 | Unitas | 8:52:17h | 9.02 | M40 | 8th M · 3rd M40 |
| 9 | AV Weert | 9:17:33h | 8.61 | — | 9th M |
| 10 | Olat | 9:18:55h | 8.59 | — | 10th M |
| 11 | LAT | 9:22:34h | 8.53 | — | 11th M |
| 12 | AV Weert | 9:33:22h | 8.37 | — | 12th M |
| 13 | LAT | 9:38:35h | 8.30 | — | 13th M |
| 14 | Hertentals | 9:40:50h | 8.26 | M60 | 14th M · 1st M60 |
| 15 | Hertentals (B) | 9:40:57h | 8.26 | — | 15th M |
| 16 | Unitas | 9:42:55h | 8.23 | M40 | 16th M · 4th M40 |
| 17 | RWV | 9:42:58h | 8.23 | — | 17th M |
| 18 | LAT | 9:43:48h | 8.22 | W35 | 1st F · 1st W35 |
| 19 | Olat | 9:44:04h | 8.22 | M23 | 18th M · 3rd M23 |
| 20 | Olat | 9:44:08h | 8.22 | W40 | 2nd F · 1st W40 |
| 21 | Olat | 9:46:27h | 8.19 | M23 | 19th M · 4th M23 |
| 22 | Olat | 9:48:09h | 8.16 | M45 | 20th M · 1st M45 |
| 23 | Olat | 9:50:23h | 8.13 | W50 | 3rd F · 1st W50 |
| 24 | Olat | 9:51:34h | 8.11 | — | 21st M |
| 24 | HAC | 9:51:34h | 8.11 | M45 | 21st M · 2nd M45 |
| 26 | Caesar Beek | 9:51:58h | 8.11 | — | 23rd M |
| 27 | Avantri | 9:56:38h | 8.04 | M45 | 24th M · 3rd M45 |
| 28 | Attila | 9:58:29h | 8.02 | M35 | 25th M · 2nd M35 |
| 29 | Unitas | 9:59:31h | 8.01 | — | 26th M |
| 30 | LAT | 10:09:22h | 7.88 | M60 | 27th M · 2nd M60 |
| 31 | LAT | 10:11:43h | 7.85 | — | 28th M |
| 32 | Attila | 10:22:28h | 7.71 | M23 | 29th M · 5th M23 |
| 33 | AV Weert | 10:22:44h | 7.71 | — | 30th M |
| 34 | Unitas | 10:25:32h | 7.67 | — | 4th F |
| 35 | LAT | 10:26:24h | 7.66 | W35 | 5th F · 2nd W35 |
| 35 | Olat | 10:26:24h | 7.66 | M50 | 31st M · 1st M50 |
| 37 | Olat | 10:29:12h | 7.63 | M23 | 32nd M · 6th M23 |
| 38 | *Aken | 10:47:17h | 7.42 | — | 33rd M |
| 39 | Olat | 11:26:22h | 6.99 | — | 34th M |
| 40 | HAC | 11:36:29h | 6.89 | — | 35th M |
| 41 | Düsseldorf | 11:50:38h | 6.75 | — | 36th M |
- 1RWV1st MTime7:54:33hPace10.12
- 2Unitas2nd M · 1st M40Time8:05:24hPace9.89Cat.M40
- 3Olympia3rd M · 1st M23Time8:08:07hPace9.83Cat.M23
- 4LAT4th M · 1st M35Time8:11:37hPace9.76Cat.M35
- 5Olat5th M · 2nd M23Time8:27:29hPace9.46Cat.M23
- 6Olat6th M · 2nd M40Time8:42:07hPace9.19Cat.M40
- 7Olat7th MTime8:43:14hPace9.17
- 8Unitas8th M · 3rd M40Time8:52:17hPace9.02Cat.M40
- 9AV Weert9th MTime9:17:33hPace8.61
- 10Olat10th MTime9:18:55hPace8.59
- 11LAT11th MTime9:22:34hPace8.53
- 12AV Weert12th MTime9:33:22hPace8.37
- 13LAT13th MTime9:38:35hPace8.30
- 14Hertentals14th M · 1st M60Time9:40:50hPace8.26Cat.M60
- 15Hertentals (B)15th MTime9:40:57hPace8.26
- 16Unitas16th M · 4th M40Time9:42:55hPace8.23Cat.M40
- 17RWV17th MTime9:42:58hPace8.23
- 18LAT1st F · 1st W35Time9:43:48hPace8.22Cat.W35
- 19Olat18th M · 3rd M23Time9:44:04hPace8.22Cat.M23
- 20Olat2nd F · 1st W40Time9:44:08hPace8.22Cat.W40
- 21Olat19th M · 4th M23Time9:46:27hPace8.19Cat.M23
- 22Olat20th M · 1st M45Time9:48:09hPace8.16Cat.M45
- 23Olat3rd F · 1st W50Time9:50:23hPace8.13Cat.W50
- 24Olat21st MTime9:51:34hPace8.11
- 24HAC21st M · 2nd M45Time9:51:34hPace8.11Cat.M45
- 26Caesar Beek23rd MTime9:51:58hPace8.11
- 27Avantri24th M · 3rd M45Time9:56:38hPace8.04Cat.M45
- 28Attila25th M · 2nd M35Time9:58:29hPace8.02Cat.M35
- 29Unitas26th MTime9:59:31hPace8.01
- 30LAT27th M · 2nd M60Time10:09:22hPace7.88Cat.M60
- 31LAT28th MTime10:11:43hPace7.85
- 32Attila29th M · 5th M23Time10:22:28hPace7.71Cat.M23
- 33AV Weert30th MTime10:22:44hPace7.71
- 34Unitas4th FTime10:25:32hPace7.67
- 35LAT5th F · 2nd W35Time10:26:24hPace7.66Cat.W35
- 35Olat31st M · 1st M50Time10:26:24hPace7.66Cat.M50
- 37Olat32nd M · 6th M23Time10:29:12hPace7.63Cat.M23
- 38*Aken33rd MTime10:47:17hPace7.42
- 39Olat34th MTime11:26:22hPace6.99
- 40HAC35th MTime11:36:29hPace6.89
- 41Düsseldorf36th MTime11:50:38hPace6.75